Napaskiak, Alaska
Current Conditions -  °F | °C
As of 12:53 PM on Monday 22 Dec 2014 (Local Time) from PABE Reporting Station
Light Snow Light Snow  
Wind Chill: -14°   Ceiling: 2100
Heat Index:   Visibility: 9mi
Dew Point: -3°   Wind: 8mph
Humidity: 88%   Direction: 340°NNW
Pressure: 29.94"   Gusts: NA
Location:  60.7494°N, 161.727°W
Report Text: PABE 222153Z 34007KT 9SM -SN BKN021 BKN180 M18/M19 A2994 RMK AO2 SNB26 SLP142 PRCP VRY LGHT P0000 T11781194
Loading
Personal Weather Stations






























Interactive Weather Map New forecast layout! Learn more

10-Day Weather Forecast

Advertisements
Track Severe Weather on mobile